createdAt,value
2022-11-10T00:02:08.238Z,58.79
2022-11-10T00:04:35.930Z,58.71
2022-11-10T00:07:03.836Z,58.88
2022-11-10T00:09:31.415Z,58.86
2022-11-10T00:12:00.329Z,58.91
2022-11-10T00:14:45.339Z,58.87
2022-11-10T00:17:12.994Z,58.86
2022-11-10T00:19:40.579Z,58.87
2022-11-10T00:22:08.132Z,58.89
2022-11-10T00:24:35.728Z,58.94
2022-11-10T00:27:04.976Z,58.94
2022-11-10T00:29:32.553Z,58.88
2022-11-10T00:32:00.154Z,59.01
2022-11-10T00:34:27.736Z,58.91
2022-11-10T00:36:55.296Z,58.95
2022-11-10T00:39:22.855Z,58.98
2022-11-10T00:41:50.556Z,58.99
2022-11-10T00:44:19.533Z,58.94
2022-11-10T00:46:47.087Z,59.06
2022-11-10T00:49:14.641Z,58.92
2022-11-10T00:51:42.237Z,58.92
2022-11-10T00:54:10.033Z,58.98
2022-11-10T00:56:37.631Z,58.88
2022-11-10T00:59:05.259Z,59.01
2022-11-10T01:01:34.226Z,58.99
2022-11-10T01:04:01.848Z,59.01
2022-11-10T01:06:29.491Z,58.95
2022-11-10T01:08:57.140Z,59.02
2022-11-10T01:11:26.051Z,59.10
2022-11-10T01:13:54.490Z,59.17
2022-11-10T01:16:22.977Z,59.03
2022-11-10T01:18:51.923Z,59.08
2022-11-10T01:21:19.511Z,59.04
2022-11-10T01:23:47.066Z,59.10
2022-11-10T01:26:14.844Z,59.01
2022-11-10T01:28:42.466Z,59.01
2022-11-10T01:31:12.572Z,59.13
2022-11-10T01:33:40.146Z,59.10
2022-11-10T01:36:09.851Z,59.11
2022-11-10T01:38:39.065Z,59.06
2022-11-10T01:41:08.932Z,58.98
2022-11-10T01:43:36.525Z,59.18
2022-11-10T01:46:04.457Z,59.20
2022-11-10T01:48:33.933Z,59.30
2022-11-10T01:51:02.965Z,59.08
2022-11-10T01:53:32.504Z,59.18
2022-11-10T01:56:00.057Z,59.08
2022-11-10T01:58:29.825Z,58.99
2022-11-10T02:00:57.474Z,59.12
2022-11-10T02:03:30.291Z,59.02
2022-11-10T02:05:57.834Z,59.11
2022-11-10T02:08:25.497Z,59.16
2022-11-10T02:10:54.437Z,59.17
2022-11-10T02:13:22.345Z,59.18
2022-11-10T02:15:50.198Z,59.14
2022-11-10T02:18:17.752Z,59.21
2022-11-10T02:20:46.655Z,59.19
2022-11-10T02:23:15.702Z,59.10
2022-11-10T02:25:43.293Z,59.20
2022-11-10T02:28:10.959Z,59.11
2022-11-10T02:30:38.553Z,59.17
2022-11-10T02:33:06.164Z,59.20
2022-11-10T02:35:33.763Z,59.12
2022-11-10T02:38:02.708Z,59.08
2022-11-10T02:40:30.252Z,59.20
2022-11-10T02:42:57.834Z,59.21
2022-11-10T02:45:25.502Z,59.20
2022-11-10T02:47:53.044Z,59.28
2022-11-10T02:50:20.623Z,59.20
2022-11-10T02:52:48.188Z,59.21
2022-11-10T02:55:17.572Z,59.14
2022-11-10T02:57:45.186Z,59.20
2022-11-10T03:00:13.714Z,59.33
2022-11-10T03:02:41.399Z,59.07
2022-11-10T03:05:09.149Z,59.09
2022-11-10T03:07:36.701Z,59.16
2022-11-10T03:10:04.815Z,59.17
2022-11-10T03:12:33.895Z,59.13
2022-11-10T03:15:01.520Z,59.23
2022-11-10T03:17:29.284Z,59.17
2022-11-10T03:19:56.856Z,59.18
2022-11-10T03:22:24.399Z,59.15
2022-11-10T03:24:51.980Z,59.15
2022-11-10T03:27:19.551Z,59.05
2022-11-10T03:29:48.461Z,59.18
2022-11-10T03:32:16.024Z,59.21
2022-11-10T03:34:43.563Z,59.10
2022-11-10T03:37:11.202Z,59.18
2022-11-10T03:39:38.764Z,59.12
2022-11-10T03:42:06.415Z,59.17
2022-11-10T03:44:33.943Z,59.05
2022-11-10T03:47:03.932Z,59.19
2022-11-10T03:49:31.541Z,59.23
2022-11-10T03:51:59.100Z,59.32
2022-11-10T03:54:26.745Z,59.13
2022-11-10T03:56:54.361Z,59.16
2022-11-10T03:59:21.912Z,59.16
2022-11-10T04:01:50.108Z,59.13
2022-11-10T04:04:32.969Z,59.22
2022-11-10T04:07:17.863Z,59.21
2022-11-10T04:09:45.424Z,59.39
2022-11-10T04:12:30.777Z,59.16
2022-11-10T04:15:16.376Z,59.17
2022-11-10T04:17:49.788Z,59.23
2022-11-10T04:20:18.815Z,59.07
2022-11-10T04:23:03.807Z,59.17
2022-11-10T04:25:51.326Z,59.15
2022-11-10T04:28:18.880Z,59.11
2022-11-10T04:30:46.425Z,59.21
2022-11-10T04:33:13.974Z,59.21
2022-11-10T04:35:42.921Z,59.15
2022-11-10T04:38:10.552Z,59.12
2022-11-10T04:40:38.107Z,59.16
2022-11-10T04:43:05.964Z,59.17
2022-11-10T04:45:33.855Z,59.31
2022-11-10T04:48:01.416Z,59.12
2022-11-10T04:50:30.172Z,59.21
2022-11-10T04:52:59.158Z,59.11
2022-11-10T04:55:27.002Z,59.08
2022-11-10T04:57:54.571Z,59.20
2022-11-10T05:00:22.263Z,59.21
2022-11-10T05:02:49.936Z,59.26
2022-11-10T05:05:17.979Z,59.04
2022-11-10T05:07:48.540Z,59.21
2022-11-10T05:10:17.622Z,59.18
2022-11-10T05:12:45.335Z,59.23
2022-11-10T05:15:13.183Z,59.08
2022-11-10T05:17:40.842Z,59.08
2022-11-10T05:20:09.715Z,59.12
2022-11-10T05:22:37.309Z,59.23
2022-11-10T05:25:05.088Z,59.10
2022-11-10T05:27:34.077Z,59.13
2022-11-10T05:30:01.644Z,59.19
2022-11-10T05:32:29.417Z,59.21
2022-11-10T05:34:57.011Z,59.04
2022-11-10T05:37:24.604Z,59.08
2022-11-10T05:39:52.159Z,59.19
2022-11-10T05:42:19.714Z,59.10
2022-11-10T05:44:48.632Z,59.24
2022-11-10T05:47:16.173Z,59.07
2022-11-10T05:49:43.720Z,59.16
2022-11-10T05:52:11.264Z,58.93
2022-11-10T05:54:38.860Z,59.10
2022-11-10T05:57:06.526Z,59.13
2022-11-10T05:59:34.197Z,59.03
2022-11-10T06:02:03.135Z,59.02
2022-11-10T06:04:30.727Z,59.06
2022-11-10T06:06:58.436Z,59.10
2022-11-10T06:09:25.996Z,59.16
2022-11-10T06:11:53.603Z,59.16
2022-11-10T06:14:21.158Z,59.17
2022-11-10T06:16:48.730Z,59.12
2022-11-10T06:19:17.637Z,59.01
2022-11-10T06:21:45.202Z,59.06
2022-11-10T06:24:12.913Z,58.99
2022-11-10T06:26:40.505Z,59.09
2022-11-10T06:29:08.073Z,59.08
2022-11-10T06:31:35.654Z,59.10
2022-11-10T06:34:03.244Z,58.97
2022-11-10T06:36:32.365Z,59.07
2022-11-10T06:38:59.948Z,58.98
2022-11-10T06:41:27.497Z,58.99
2022-11-10T06:43:56.002Z,59.05
2022-11-10T06:46:23.567Z,59.00
2022-11-10T06:48:51.236Z,59.05
2022-11-10T06:51:18.905Z,58.99
2022-11-10T06:53:48.469Z,59.08
2022-11-10T06:56:16.335Z,59.00
2022-11-10T06:58:43.972Z,59.12
2022-11-10T07:01:11.605Z,58.99
2022-11-10T07:03:58.582Z,59.06
2022-11-10T07:06:27.654Z,59.05
2022-11-10T07:08:56.604Z,59.01
2022-11-10T07:11:24.181Z,58.97
2022-11-10T07:13:51.727Z,59.07
2022-11-10T07:16:24.220Z,59.07
2022-11-10T07:18:52.080Z,59.16
2022-11-10T07:21:19.611Z,59.16
2022-11-10T07:23:47.226Z,59.08
2022-11-10T07:26:16.107Z,59.08
2022-11-10T07:28:43.796Z,59.01
2022-11-10T07:31:11.723Z,59.06
2022-11-10T07:33:39.266Z,58.98
2022-11-10T07:36:07.254Z,59.06
2022-11-10T07:38:34.980Z,59.00
2022-11-10T07:41:02.581Z,59.02
2022-11-10T07:43:31.530Z,59.04
2022-11-10T07:45:59.738Z,57.75
2022-11-10T07:48:27.303Z,57.77
2022-11-10T07:50:54.844Z,57.72
2022-11-10T07:53:22.901Z,57.70
2022-11-10T07:55:50.660Z,57.60
2022-11-10T07:58:18.780Z,57.13
2022-11-10T08:00:48.003Z,57.02
2022-11-10T08:03:16.441Z,56.75
2022-11-10T08:05:44.121Z,55.92
2022-11-10T08:08:11.712Z,56.75
2022-11-10T08:10:39.672Z,56.83
2022-11-10T08:13:08.474Z,56.55
2022-11-10T08:15:36.083Z,56.74
2022-11-10T08:18:05.936Z,56.95
2022-11-10T08:20:33.890Z,57.29
2022-11-10T08:23:02.482Z,57.50
2022-11-10T08:25:34.896Z,57.49
2022-11-10T08:28:04.121Z,57.70
2022-11-10T08:30:31.800Z,57.79
2022-11-10T08:33:01.466Z,57.89
2022-11-10T08:35:31.380Z,58.14
2022-11-10T08:37:59.002Z,58.15
2022-11-10T08:40:28.254Z,58.46
2022-11-10T08:42:59.248Z,58.58
2022-11-10T08:45:26.902Z,58.59
2022-11-10T08:47:59.112Z,59.02
2022-11-10T08:50:26.815Z,59.19
2022-11-10T08:52:55.862Z,59.02
2022-11-10T08:55:23.472Z,59.31
2022-11-10T08:57:51.045Z,59.36
2022-11-10T09:00:20.863Z,59.28
2022-11-10T09:02:48.480Z,59.25
2022-11-10T09:05:16.292Z,59.05
2022-11-10T09:07:45.023Z,59.34
2022-11-10T09:10:14.074Z,59.42
2022-11-10T09:12:41.718Z,59.63
2022-11-10T09:15:10.117Z,59.90
2022-11-10T09:17:37.746Z,59.70
2022-11-10T09:20:06.335Z,59.86
2022-11-10T09:22:35.352Z,59.83
2022-11-10T09:25:02.999Z,60.13
2022-11-10T09:27:32.402Z,59.91
2022-11-10T09:29:59.989Z,60.09
2022-11-10T09:32:27.589Z,59.99
2022-11-10T09:34:55.128Z,60.16
2022-11-10T09:37:22.680Z,60.07
2022-11-10T09:39:50.239Z,60.07
2022-11-10T09:42:37.710Z,60.05
2022-11-10T09:45:07.828Z,60.09
2022-11-10T09:47:56.667Z,60.09
2022-11-10T09:50:30.785Z,60.09
2022-11-10T09:52:58.344Z,59.58
2022-11-10T09:55:30.942Z,59.69
2022-11-10T09:57:59.886Z,59.63
2022-11-10T10:00:27.463Z,59.54
2022-11-10T10:02:57.212Z,59.61
2022-11-10T10:05:35.876Z,59.56
2022-11-10T10:08:04.141Z,59.45
2022-11-10T10:10:34.575Z,59.54
2022-11-10T10:13:12.523Z,59.42
2022-11-10T10:15:44.496Z,59.33
2022-11-10T10:18:19.935Z,59.31
2022-11-10T10:20:53.324Z,59.00
2022-11-10T10:23:40.676Z,59.00
2022-11-10T10:26:13.100Z,58.98
2022-11-10T10:28:42.977Z,58.97
2022-11-10T10:31:14.711Z,59.02
2022-11-10T10:33:42.381Z,59.09
2022-11-10T10:36:11.418Z,59.15
2022-11-10T10:38:39.139Z,59.03
2022-11-10T10:41:13.207Z,59.01
2022-11-10T10:43:43.052Z,59.01
2022-11-10T10:46:12.635Z,58.98
2022-11-10T10:48:40.224Z,58.79
2022-11-10T10:51:07.832Z,58.89
2022-11-10T10:53:45.611Z,58.82
2022-11-10T10:56:17.038Z,58.55
2022-11-10T10:58:52.396Z,58.45
2022-11-10T11:01:23.136Z,58.36
2022-11-10T11:03:51.380Z,58.45
2022-11-10T11:06:20.574Z,58.24
2022-11-10T11:08:59.218Z,58.44
2022-11-10T11:11:28.673Z,58.35
2022-11-10T11:14:16.724Z,58.37
2022-11-10T11:16:48.702Z,57.38
2022-11-10T11:19:16.448Z,57.30
2022-11-10T11:21:50.157Z,57.32
2022-11-10T11:24:21.974Z,57.11
2022-11-10T11:26:52.393Z,57.37
2022-11-10T11:29:44.023Z,57.32
2022-11-10T11:32:25.744Z,57.25
2022-11-10T11:34:57.840Z,57.29
2022-11-10T11:37:27.860Z,57.48
2022-11-10T11:40:01.201Z,57.29
2022-11-10T11:42:39.291Z,57.55
2022-11-10T11:45:16.847Z,57.48
2022-11-10T11:47:53.172Z,57.63
2022-11-10T11:50:25.603Z,57.54
2022-11-10T11:52:58.787Z,57.44
2022-11-10T11:55:32.181Z,57.59
2022-11-10T11:58:07.683Z,57.56
2022-11-10T12:00:40.832Z,57.84
2022-11-10T12:03:27.032Z,57.50
2022-11-10T12:05:59.247Z,57.47
2022-11-10T12:08:33.350Z,57.70
2022-11-10T12:11:04.808Z,57.80
2022-11-10T12:13:39.127Z,57.67
2022-11-10T12:16:13.946Z,57.81
2022-11-10T12:18:49.731Z,57.79
2022-11-10T12:21:24.173Z,57.78
2022-11-10T12:24:00.159Z,57.92
2022-11-10T12:26:34.579Z,58.28
2022-11-10T12:29:05.969Z,58.03
2022-11-10T12:31:35.960Z,58.26
2022-11-10T12:34:06.371Z,58.13
2022-11-10T12:36:33.921Z,58.29
2022-11-10T12:39:04.460Z,58.32
2022-11-10T12:41:36.198Z,58.31
2022-11-10T12:44:07.438Z,58.31
2022-11-10T12:46:36.374Z,58.38
2022-11-10T12:49:08.941Z,58.34
2022-11-10T12:51:40.056Z,58.46
2022-11-10T12:54:16.304Z,58.65
2022-11-10T12:56:46.196Z,58.58
2022-11-10T12:59:28.675Z,58.41
2022-11-10T13:02:01.806Z,58.47
2022-11-10T13:04:29.438Z,58.37
2022-11-10T13:06:57.725Z,58.31
2022-11-10T13:09:26.344Z,58.39
2022-11-10T13:12:16.862Z,58.47
2022-11-10T13:14:44.533Z,58.61
2022-11-10T13:17:52.354Z,58.50
2022-11-10T13:20:49.023Z,58.68
2022-11-10T13:23:26.968Z,58.49
2022-11-10T13:25:56.397Z,58.61
2022-11-10T13:28:58.816Z,58.44
2022-11-10T13:31:39.748Z,58.38
2022-11-10T13:34:10.930Z,58.57
2022-11-10T13:36:39.105Z,58.49
2022-11-10T13:39:23.879Z,58.38
2022-11-10T13:41:51.950Z,58.54
2022-11-10T13:44:24.400Z,58.37
2022-11-10T13:47:04.095Z,58.38
2022-11-10T13:49:48.632Z,58.16
2022-11-10T13:52:17.017Z,58.28
2022-11-10T13:55:01.021Z,58.63
2022-11-10T13:57:30.306Z,58.50
2022-11-10T13:59:59.388Z,58.57
2022-11-10T14:03:01.679Z,58.67
2022-11-10T14:06:08.501Z,58.72
2022-11-10T14:08:39.385Z,58.68
2022-11-10T14:11:12.747Z,58.83
2022-11-10T14:13:42.550Z,58.96
2022-11-10T14:16:14.972Z,59.11
2022-11-10T14:18:44.096Z,59.31
2022-11-10T14:21:13.501Z,59.17
2022-11-10T14:23:44.724Z,59.29
2022-11-10T14:26:15.852Z,59.19
2022-11-10T14:28:43.407Z,59.28
2022-11-10T14:31:12.317Z,59.48
2022-11-10T14:33:39.923Z,59.41
2022-11-10T14:36:08.899Z,59.34
2022-11-10T14:38:37.938Z,59.10
2022-11-10T14:41:06.635Z,59.05
2022-11-10T14:43:35.120Z,58.90
2022-11-10T14:46:03.162Z,58.76
2022-11-10T14:48:31.715Z,58.70
2022-11-10T14:51:02.788Z,58.70
2022-11-10T14:53:31.929Z,58.66
2022-11-10T14:56:01.363Z,58.55
2022-11-10T14:58:32.119Z,58.62
2022-11-10T15:00:59.675Z,58.70
2022-11-10T15:03:31.912Z,58.68
2022-11-10T15:05:59.478Z,58.76
2022-11-10T15:08:27.184Z,58.85
2022-11-10T15:10:56.206Z,58.79
2022-11-10T15:13:37.076Z,58.85
2022-11-10T15:16:26.645Z,58.87
2022-11-10T15:18:55.367Z,59.02
2022-11-10T15:21:23.726Z,59.01
2022-11-10T15:23:54.021Z,59.16
2022-11-10T15:26:22.980Z,59.18
2022-11-10T15:28:51.908Z,59.11
2022-11-10T15:31:23.210Z,59.07
2022-11-10T15:33:52.235Z,59.20
2022-11-10T15:36:28.679Z,59.42
2022-11-10T15:39:04.115Z,59.20
2022-11-10T15:41:32.092Z,59.13
2022-11-10T15:44:13.768Z,59.13
2022-11-10T15:46:41.444Z,59.16
2022-11-10T15:49:11.508Z,58.99
2022-11-10T15:51:39.044Z,59.06
2022-11-10T15:54:10.152Z,58.99
2022-11-10T15:56:37.744Z,58.73
2022-11-10T15:59:06.676Z,58.83
2022-11-10T16:01:34.322Z,58.95
2022-11-10T16:04:01.953Z,58.85
2022-11-10T16:06:30.590Z,58.93
2022-11-10T16:08:58.312Z,59.17
2022-11-10T16:11:26.059Z,59.14
2022-11-10T16:13:53.687Z,59.13
2022-11-10T16:16:23.955Z,59.22
2022-11-10T16:18:51.658Z,59.25
2022-11-10T16:21:20.400Z,59.41
2022-11-10T16:23:48.012Z,59.45
2022-11-10T16:26:16.396Z,59.24
2022-11-10T16:28:44.271Z,59.27
2022-11-10T16:31:11.924Z,58.71
2022-11-10T16:33:40.879Z,58.72
2022-11-10T16:36:13.635Z,58.35
2022-11-10T16:38:41.221Z,57.73
2022-11-10T16:41:12.352Z,57.62
2022-11-10T16:43:39.945Z,57.45
2022-11-10T16:46:17.285Z,57.01
2022-11-10T16:48:46.381Z,56.92
2022-11-10T16:51:14.239Z,56.82
2022-11-10T16:53:41.836Z,56.65
2022-11-10T16:56:13.812Z,56.43
2022-11-10T16:58:41.429Z,56.33
2022-11-10T17:01:12.471Z,56.19
2022-11-10T17:03:43.026Z,55.89
2022-11-10T17:06:13.468Z,55.94
2022-11-10T17:08:41.347Z,54.52
2022-11-10T17:11:09.009Z,53.56
2022-11-10T17:13:36.798Z,53.85
2022-11-10T17:16:05.777Z,53.89
2022-11-10T17:18:33.405Z,54.33
2022-11-10T17:21:01.257Z,54.67
2022-11-10T17:23:31.477Z,54.41
2022-11-10T17:25:59.353Z,54.14
2022-11-10T17:28:26.960Z,54.15
2022-11-10T17:30:55.305Z,53.84
2022-11-10T17:33:23.179Z,54.10
2022-11-10T17:35:51.755Z,54.24
2022-11-10T17:38:22.080Z,54.04
2022-11-10T17:40:51.538Z,53.88
2022-11-10T17:43:19.487Z,53.89
2022-11-10T17:45:47.263Z,54.05
2022-11-10T17:48:15.211Z,53.93
2022-11-10T17:50:43.545Z,54.03
2022-11-10T17:53:16.995Z,53.76
2022-11-10T17:55:44.704Z,53.66
2022-11-10T17:58:13.623Z,53.52
2022-11-10T18:00:41.377Z,53.39
2022-11-10T18:03:12.821Z,53.65
2022-11-10T18:05:40.657Z,53.55
2022-11-10T18:08:08.244Z,53.38
2022-11-10T18:10:35.880Z,53.26
2022-11-10T18:13:03.459Z,53.29
2022-11-10T18:15:32.411Z,53.07
2022-11-10T18:18:01.167Z,52.82
2022-11-10T18:20:28.998Z,53.25
2022-11-10T18:22:56.726Z,53.15
2022-11-10T18:25:24.312Z,53.03
2022-11-10T18:27:52.041Z,52.95
2022-11-10T18:30:19.887Z,52.94
2022-11-10T18:32:48.916Z,52.67
2022-11-10T18:35:17.711Z,52.85
2022-11-10T18:37:45.465Z,52.46
2022-11-10T18:40:14.613Z,52.50
2022-11-10T18:42:42.207Z,52.38
2022-11-10T18:45:11.090Z,52.44
2022-11-10T18:47:38.706Z,52.36
2022-11-10T18:50:09.429Z,52.21
2022-11-10T18:52:37.145Z,52.27
2022-11-10T18:55:04.917Z,52.14
2022-11-10T18:57:32.484Z,52.13
2022-11-10T19:00:00.053Z,51.97
2022-11-10T19:02:27.640Z,51.88
2022-11-10T19:04:55.279Z,51.78
2022-11-10T19:07:24.232Z,51.80
2022-11-10T19:09:51.854Z,51.70
2022-11-10T19:12:25.412Z,51.64
2022-11-10T19:14:54.273Z,51.60
2022-11-10T19:17:21.908Z,51.58
2022-11-10T19:19:54.994Z,51.41
2022-11-10T19:22:27.131Z,51.38
2022-11-10T19:25:07.665Z,51.41
2022-11-10T19:27:35.557Z,51.51
2022-11-10T19:30:03.181Z,51.39
2022-11-10T19:32:30.916Z,51.32
2022-11-10T19:34:58.484Z,51.44
2022-11-10T19:37:32.022Z,51.59
2022-11-10T19:40:01.792Z,51.71
2022-11-10T19:42:29.383Z,51.85
2022-11-10T19:44:57.879Z,51.61
2022-11-10T19:47:25.690Z,52.03
2022-11-10T19:49:53.321Z,52.08
2022-11-10T19:52:20.940Z,52.26
2022-11-10T19:54:49.917Z,52.49
2022-11-10T19:57:17.545Z,52.38
2022-11-10T19:59:45.131Z,52.59
2022-11-10T20:02:13.570Z,52.57
2022-11-10T20:05:01.288Z,52.78
2022-11-10T20:07:46.638Z,52.73
2022-11-10T20:10:15.708Z,52.98
2022-11-10T20:12:43.227Z,52.89
2022-11-10T20:15:11.668Z,52.95
2022-11-10T20:17:39.233Z,53.17
2022-11-10T20:20:07.602Z,53.35
2022-11-10T20:22:35.200Z,53.19
2022-11-10T20:25:02.778Z,53.58
2022-11-10T20:27:31.694Z,53.30
2022-11-10T20:29:59.296Z,53.42
2022-11-10T20:32:27.024Z,53.47
2022-11-10T20:34:54.735Z,53.48
2022-11-10T20:37:22.346Z,53.47
2022-11-10T20:39:49.915Z,53.72
2022-11-10T20:42:17.450Z,53.77
2022-11-10T20:44:46.388Z,53.86
2022-11-10T20:47:13.996Z,54.11
2022-11-10T20:49:41.598Z,54.14
2022-11-10T20:52:09.151Z,54.25
2022-11-10T20:54:36.693Z,54.28
2022-11-10T20:57:04.326Z,54.29
2022-11-10T20:59:36.102Z,54.28
2022-11-10T21:02:06.677Z,54.79
2022-11-10T21:04:36.860Z,54.48
2022-11-10T21:07:08.130Z,54.66
2022-11-10T21:09:35.820Z,54.60
2022-11-10T21:12:21.077Z,54.50
2022-11-10T21:14:48.720Z,54.67
2022-11-10T21:17:18.049Z,54.82
2022-11-10T21:19:45.644Z,54.79
2022-11-10T21:22:13.226Z,54.96
2022-11-10T21:24:40.829Z,54.88
2022-11-10T21:27:10.264Z,54.92
2022-11-10T21:29:37.873Z,54.97
2022-11-10T21:32:05.892Z,54.95
2022-11-10T21:34:35.607Z,55.06
2022-11-10T21:37:03.253Z,55.02
2022-11-10T21:39:30.848Z,55.11
2022-11-10T21:41:58.451Z,55.19
2022-11-10T21:44:26.061Z,55.13
2022-11-10T21:46:53.773Z,55.21
2022-11-10T21:49:21.368Z,55.21
2022-11-10T21:51:50.427Z,55.31
2022-11-10T21:54:18.101Z,55.29
2022-11-10T21:56:45.720Z,55.37
2022-11-10T21:59:13.420Z,55.26
2022-11-10T22:01:41.019Z,55.37
2022-11-10T22:04:08.644Z,55.33
2022-11-10T22:06:54.003Z,55.44
2022-11-10T22:09:36.881Z,55.41
2022-11-10T22:12:22.584Z,55.53
2022-11-10T22:15:07.991Z,55.55
2022-11-10T22:17:53.110Z,55.56
2022-11-10T22:20:20.741Z,55.55
2022-11-10T22:22:50.085Z,55.67
2022-11-10T22:25:19.217Z,55.64
2022-11-10T22:27:46.754Z,55.58
2022-11-10T22:30:14.631Z,55.71
2022-11-10T22:32:42.281Z,55.65
2022-11-10T22:35:30.297Z,55.87
2022-11-10T22:37:57.933Z,55.81
2022-11-10T22:40:44.295Z,55.83
2022-11-10T22:43:29.690Z,55.87
2022-11-10T22:45:57.304Z,55.88
2022-11-10T22:48:27.679Z,55.86
2022-11-10T22:50:55.710Z,55.71
2022-11-10T22:53:23.926Z,55.77
2022-11-10T22:55:53.251Z,55.74
2022-11-10T22:58:20.837Z,55.94
2022-11-10T23:00:48.588Z,55.95
2022-11-10T23:03:16.389Z,55.84
2022-11-10T23:05:43.947Z,55.98
2022-11-10T23:08:11.532Z,56.01
2022-11-10T23:10:39.141Z,56.02
2022-11-10T23:13:08.280Z,56.09
2022-11-10T23:15:35.852Z,56.07
2022-11-10T23:18:06.657Z,56.03
2022-11-10T23:20:34.680Z,55.90
2022-11-10T23:23:02.284Z,55.94
2022-11-10T23:25:29.874Z,55.99
2022-11-10T23:28:17.566Z,56.05
2022-11-10T23:30:45.229Z,56.11
2022-11-10T23:33:12.791Z,56.13
2022-11-10T23:35:40.392Z,56.13
2022-11-10T23:38:07.987Z,56.18
2022-11-10T23:40:35.611Z,56.20
2022-11-10T23:43:03.301Z,56.13
2022-11-10T23:46:00.009Z,56.19
2022-11-10T23:48:19.979Z,56.17
2022-11-10T23:50:47.710Z,56.20
2022-11-10T23:53:15.488Z,55.91
2022-11-10T23:55:43.217Z,56.16
2022-11-10T23:58:10.870Z,56.22
